Terminal Aerodrome Forecast
Issued by NWS Wakefield, VA

Home | Current Version | Previous Version | Text Only | Print | Product List | Glossary On
Versions: 1 2 3 4 5 6 7 8 9 10 11 12 13 14 15 16 17 18 19 20
000
FTUS41 KAKQ 020100 AAA
TAFORF
TAF AMD
KORF 020100Z 0201/0224 14004KT P6SM BKN004 OVC020
      TEMPO 0201/0203 3SM -DZ BR OVC010
     FM020300 23008KT 3SM BR OVC004
     FM020800 23008KT 6SM BR SCT006 OVC012
     FM021500 35010KT P6SM SCT015 OVC030
     FM021800 01012G20KT P6SM BKN050=

USA.gov is the U.S. government's official web portal to all federal, state and local government web resources and services.